Time;durP1;ratioP1;P1;durP2;ratioP2;P2;SDS_P1;SDS_P2;PMS_P1;PMS_P2;Temp;Humidity;BMP_temperature;BMP_pressure;BME280_temperature;BME280_humidity;BME280_pressure;Samples;Min_cycle;Max_cycle;Signal;HPM_P1;HPM_P2
2024/02/29 00:00:22;;;;;;;29.75;26.35;;;;;;;;;;4990141;28;20211;-85
2024/02/29 00:02:49;;;;;;;32.30;28.90;;;;;;;;;;4981721;28;20211;-85
2024/02/29 00:05:17;;;;;;;28.45;25.45;;;;;;;;;;4983160;28;20278;-85
2024/02/29 00:07:46;;;;;;;30.05;26.95;;;;;;;;;;4982427;28;20249;-85
2024/02/29 00:10:14;;;;;;;31.98;25.80;;;;;;;;;;4983083;28;20274;-84
2024/02/29 00:12:41;;;;;;;29.98;27.30;;;;;;;;;;4981623;28;20213;-84
2024/02/29 00:15:10;;;;;;;28.80;25.92;;;;;;;;;;4963138;28;20234;-85
2024/02/29 00:17:37;;;;;;;27.48;24.80;;;;;;;;;;4963072;29;20250;-85
2024/02/29 00:20:08;;;;;;;30.33;26.80;;;;;;;;;;4963450;29;20204;-84
2024/02/29 00:22:35;;;;;;;28.40;25.55;;;;;;;;;;4990967;28;20280;-84
2024/02/29 00:25:04;;;;;;;30.23;27.20;;;;;;;;;;5001241;28;20288;-85
2024/02/29 00:27:31;;;;;;;31.88;27.27;;;;;;;;;;5001785;28;20214;-85
2024/02/29 00:29:58;;;;;;;27.15;24.65;;;;;;;;;;5001833;28;20305;-85
2024/02/29 00:32:25;;;;;;;26.65;24.10;;;;;;;;;;5000834;28;20205;-84
2024/02/29 00:34:52;;;;;;;25.65;23.08;;;;;;;;;;5001498;28;20273;-85
2024/02/29 00:37:19;;;;;;;25.77;23.40;;;;;;;;;;5001106;28;20679;-84
2024/02/29 00:39:46;;;;;;;24.60;22.10;;;;;;;;;;5000764;28;20613;-85
2024/02/29 00:42:14;;;;;;;26.00;23.60;;;;;;;;;;4998900;28;20257;-84
2024/02/29 00:44:41;;;;;;;26.20;23.80;;;;;;;;;;4962034;28;20251;-85
2024/02/29 00:47:08;;;;;;;25.80;23.33;;;;;;;;;;4961885;29;20204;-84
2024/02/29 00:49:36;;;;;;;27.27;24.67;;;;;;;;;;4962663;29;20208;-83
2024/02/29 00:52:03;;;;;;;28.13;25.42;;;;;;;;;;4962655;29;20211;-84
2024/02/29 00:54:30;;;;;;;28.40;25.90;;;;;;;;;;4962107;28;20263;-84
2024/02/29 00:56:57;;;;;;;25.17;22.95;;;;;;;;;;4961543;29;20243;-85
2024/02/29 00:59:25;;;;;;;24.50;22.30;;;;;;;;;;4961846;29;20238;-84
2024/02/29 01:01:52;;;;;;;25.55;23.25;;;;;;;;;;4962286;28;20224;-85
2024/02/29 01:04:19;;;;;;;24.05;21.98;;;;;;;;;;4972890;28;20238;-85
2024/02/29 01:06:46;;;;;;;24.55;22.40;;;;;;;;;;4976277;28;20623;-85
2024/02/29 01:09:13;;;;;;;26.08;23.50;;;;;;;;;;4961939;29;20259;-86
2024/02/29 01:11:40;;;;;;;24.92;22.38;;;;;;;;;;4960906;29;20211;-84
2024/02/29 01:14:07;;;;;;;25.73;23.23;;;;;;;;;;4967791;28;20239;-85
2024/02/29 01:16:36;;;;;;;25.17;22.73;;;;;;;;;;4968053;28;20202;-85
2024/02/29 01:19:05;;;;;;;25.13;23.15;;;;;;;;;;4980245;28;20540;-85
2024/02/29 01:21:32;;;;;;;24.92;22.75;;;;;;;;;;4980839;28;20280;-84
2024/02/29 01:23:59;;;;;;;25.35;23.27;;;;;;;;;;4971153;28;20290;-85
2024/02/29 01:26:26;;;;;;;25.02;23.00;;;;;;;;;;4961329;29;20278;-84
2024/02/29 01:28:53;;;;;;;23.90;21.80;;;;;;;;;;4969289;28;20206;-84
2024/02/29 01:31:20;;;;;;;25.25;22.92;;;;;;;;;;4999697;28;20191;-85
2024/02/29 01:33:49;;;;;;;25.65;22.80;;;;;;;;;;4986377;28;20230;-85
2024/02/29 01:36:16;;;;;;;25.25;23.10;;;;;;;;;;4966658;28;20208;-85
2024/02/29 01:38:43;;;;;;;24.70;22.45;;;;;;;;;;4961423;29;20616;-85
2024/02/29 01:41:10;;;;;;;25.40;23.17;;;;;;;;;;4987668;28;20213;-85
2024/02/29 01:43:37;;;;;;;23.92;21.95;;;;;;;;;;4981730;28;20269;-85
2024/02/29 01:46:11;;;;;;;24.35;22.13;;;;;;;;;;4960539;29;20227;-86
2024/02/29 01:48:38;;;;;;;22.75;20.85;;;;;;;;;;4974199;28;20226;-85
2024/02/29 01:51:07;;;;;;;24.25;21.92;;;;;;;;;;4960096;28;20207;-85
2024/02/29 01:53:34;;;;;;;23.50;21.55;;;;;;;;;;4960507;28;20302;-85
2024/02/29 01:56:01;;;;;;;23.17;21.23;;;;;;;;;;4960981;29;20211;-85
2024/02/29 01:58:28;;;;;;;24.55;22.25;;;;;;;;;;4960781;29;20211;-86
2024/02/29 02:00:55;;;;;;;22.40;20.60;;;;;;;;;;4960204;29;20226;-85
2024/02/29 02:03:22;;;;;;;26.70;24.17;;;;;;;;;;4960485;28;20227;-84
2024/02/29 02:05:49;;;;;;;23.48;21.40;;;;;;;;;;4961069;29;20231;-85
2024/02/29 02:08:18;;;;;;;23.70;21.70;;;;;;;;;;4960539;29;20208;-84
2024/02/29 02:10:45;;;;;;;21.95;20.23;;;;;;;;;;4960050;29;20208;-85
2024/02/29 02:13:12;;;;;;;23.70;21.60;;;;;;;;;;4963936;28;20227;-86
2024/02/29 02:15:39;;;;;;;24.17;22.17;;;;;;;;;;4980138;28;20603;-85
2024/02/29 02:18:06;;;;;;;23.05;21.10;;;;;;;;;;4965993;28;20637;-85
2024/02/29 02:20:34;;;;;;;23.75;21.90;;;;;;;;;;4960225;29;20238;-86
2024/02/29 02:23:01;;;;;;;24.10;22.02;;;;;;;;;;4960317;28;20203;-85
2024/02/29 02:25:28;;;;;;;23.13;21.10;;;;;;;;;;4960596;29;20223;-85
2024/02/29 02:27:55;;;;;;;24.00;22.00;;;;;;;;;;4960302;29;20211;-85
2024/02/29 02:30:22;;;;;;;24.00;21.77;;;;;;;;;;4960063;29;20611;-86
2024/02/29 02:32:49;;;;;;;24.27;22.33;;;;;;;;;;4958927;28;20263;-84
2024/02/29 02:35:16;;;;;;;23.38;21.23;;;;;;;;;;4959977;29;20664;-85
2024/02/29 02:37:45;;;;;;;25.00;22.80;;;;;;;;;;4959925;29;20266;-83
2024/02/29 02:40:12;;;;;;;25.02;22.63;;;;;;;;;;4959581;29;20651;-85
2024/02/29 02:42:39;;;;;;;24.33;21.83;;;;;;;;;;4960358;29;20222;-83
2024/02/29 02:45:07;;;;;;;24.30;22.25;;;;;;;;;;4959605;28;20232;-85
2024/02/29 02:47:34;;;;;;;26.25;23.45;;;;;;;;;;4960637;29;20262;-84
2024/02/29 02:50:01;;;;;;;23.60;21.65;;;;;;;;;;4961800;28;20233;-85
2024/02/29 02:52:28;;;;;;;27.13;24.77;;;;;;;;;;4972180;28;20215;-85
2024/02/29 02:54:57;;;;;;;26.92;22.42;;;;;;;;;;4961337;28;20348;-85
2024/02/29 02:57:24;;;;;;;25.42;23.13;;;;;;;;;;4985102;28;20445;-84
2024/02/29 02:59:51;;;;;;;24.63;22.50;;;;;;;;;;4994826;28;20203;-85
2024/02/29 03:02:18;;;;;;;27.13;24.40;;;;;;;;;;4991342;28;20191;-85
2024/02/29 03:04:45;;;;;;;25.33;23.02;;;;;;;;;;4973196;28;20243;-86
2024/02/29 03:07:12;;;;;;;25.42;23.25;;;;;;;;;;4969689;28;20229;-85
2024/02/29 03:09:39;;;;;;;26.58;23.98;;;;;;;;;;4966569;28;20259;-86
2024/02/29 03:12:09;;;;;;;27.40;24.60;;;;;;;;;;4962482;29;20211;-86
2024/02/29 03:14:36;;;;;;;27.30;24.60;;;;;;;;;;4970814;28;20226;-86
2024/02/29 03:17:03;;;;;;;30.00;25.95;;;;;;;;;;4978855;28;20211;-86
2024/02/29 03:19:30;;;;;;;27.58;24.92;;;;;;;;;;4970154;28;20280;-86
2024/02/29 03:21:57;;;;;;;26.98;24.58;;;;;;;;;;4980097;28;20238;-86
2024/02/29 03:24:24;;;;;;;30.20;25.65;;;;;;;;;;4973081;28;20581;-86
2024/02/29 03:26:51;;;;;;;27.17;24.40;;;;;;;;;;4978129;28;20339;-86
2024/02/29 03:29:19;;;;;;;27.50;24.90;;;;;;;;;;4980155;28;20324;-86
2024/02/29 03:31:48;;;;;;;28.38;25.27;;;;;;;;;;4980136;28;20214;-86
2024/02/29 03:34:15;;;;;;;30.17;27.05;;;;;;;;;;4980757;28;20223;-87
2024/02/29 03:36:42;;;;;;;27.52;25.00;;;;;;;;;;4979544;28;20234;-86
2024/02/29 03:39:10;;;;;;;26.70;24.17;;;;;;;;;;4979855;28;20287;-87
2024/02/29 03:41:37;;;;;;;27.58;24.85;;;;;;;;;;4979899;28;20640;-86
2024/02/29 03:44:04;;;;;;;30.63;25.38;;;;;;;;;;4980087;28;20297;-86
2024/02/29 03:46:32;;;;;;;30.13;25.02;;;;;;;;;;4968077;28;20239;-86
2024/02/29 03:48:59;;;;;;;29.10;26.20;;;;;;;;;;4977010;28;20227;-86
2024/02/29 03:51:26;;;;;;;28.20;25.48;;;;;;;;;;4979484;28;20207;-86
2024/02/29 03:53:53;;;;;;;28.30;25.15;;;;;;;;;;4980068;28;20293;-86
2024/02/29 03:56:20;;;;;;;29.13;24.45;;;;;;;;;;4970397;28;20274;-86
2024/02/29 03:58:47;;;;;;;30.38;27.20;;;;;;;;;;4961272;29;20610;-86
2024/02/29 04:01:14;;;;;;;32.45;29.23;;;;;;;;;;4975101;28;20218;-85
2024/02/29 04:03:44;;;;;;;29.05;26.00;;;;;;;;;;4980271;28;20215;-85
2024/02/29 04:06:11;;;;;;;28.80;26.15;;;;;;;;;;4979683;28;20231;-86
2024/02/29 04:08:38;;;;;;;31.02;27.77;;;;;;;;;;4979603;28;20262;-86
2024/02/29 04:11:05;;;;;;;35.95;27.90;;;;;;;;;;4979486;28;20553;-86
2024/02/29 04:13:33;;;;;;;32.15;28.00;;;;;;;;;;4980630;28;20242;-86
2024/02/29 04:16:02;;;;;;;30.92;27.27;;;;;;;;;;4984015;28;20203;-85
2024/02/29 04:18:29;;;;;;;31.70;27.90;;;;;;;;;;4983615;28;20206;-86
2024/02/29 04:20:57;;;;;;;29.45;26.80;;;;;;;;;;4982673;28;20225;-86
2024/02/29 04:23:24;;;;;;;32.55;28.33;;;;;;;;;;4983144;28;20223;-86
2024/02/29 04:25:51;;;;;;;40.80;28.27;;;;;;;;;;4983202;28;20242;-86
2024/02/29 04:28:18;;;;;;;31.58;28.05;;;;;;;;;;4983045;28;20203;-86
2024/02/29 04:30:45;;;;;;;32.08;26.95;;;;;;;;;;4982738;28;20246;-86
2024/02/29 04:33:12;;;;;;;32.83;29.40;;;;;;;;;;4983491;28;20762;-86
2024/02/29 04:35:39;;;;;;;39.97;30.00;;;;;;;;;;4983097;28;20215;-86
2024/02/29 04:38:08;;;;;;;34.10;30.30;;;;;;;;;;4982858;28;20287;-86
2024/02/29 04:40:35;;;;;;;35.13;27.83;;;;;;;;;;4983029;28;20202;-87
2024/02/29 04:43:02;;;;;;;34.92;28.80;;;;;;;;;;4982795;28;20257;-85
2024/02/29 04:45:29;;;;;;;44.40;34.17;;;;;;;;;;4982297;28;20210;-86
2024/02/29 04:47:56;;;;;;;33.40;29.90;;;;;;;;;;4982451;28;20222;-86
2024/02/29 04:50:23;;;;;;;39.35;30.75;;;;;;;;;;4982497;28;20242;-85
2024/02/29 04:52:50;;;;;;;37.13;30.80;;;;;;;;;;4981991;28;20211;-86
2024/02/29 04:55:19;;;;;;;33.60;28.98;;;;;;;;;;4982469;28;20199;-86
2024/02/29 04:57:46;;;;;;;35.15;29.10;;;;;;;;;;4982724;28;20578;-86
2024/02/29 05:00:13;;;;;;;34.20;30.50;;;;;;;;;;4982031;28;20286;-86
2024/02/29 05:02:40;;;;;;;38.60;29.63;;;;;;;;;;4982394;28;20214;-86
2024/02/29 05:05:08;;;;;;;33.42;29.83;;;;;;;;;;4982727;28;20266;-86
2024/02/29 05:07:35;;;;;;;37.58;31.70;;;;;;;;;;4982342;28;20223;-86
2024/02/29 05:10:02;;;;;;;35.45;31.05;;;;;;;;;;4981917;28;20671;-86
2024/02/29 05:12:30;;;;;;;43.83;31.55;;;;;;;;;;4982007;28;20266;-86
2024/02/29 05:14:57;;;;;;;34.88;31.08;;;;;;;;;;4982809;28;20231;-86
2024/02/29 05:17:24;;;;;;;36.30;31.75;;;;;;;;;;4982703;28;20274;-84
2024/02/29 05:19:52;;;;;;;32.53;29.23;;;;;;;;;;4982348;28;20261;-86
2024/02/29 05:22:19;;;;;;;31.88;28.48;;;;;;;;;;4981385;28;20286;-85
2024/02/29 05:24:46;;;;;;;38.13;30.13;;;;;;;;;;4981350;28;20223;-86
2024/02/29 05:27:13;;;;;;;33.40;28.92;;;;;;;;;;4981824;28;20585;-86
2024/02/29 05:29:41;;;;;;;34.75;30.52;;;;;;;;;;4981901;28;20215;-84
2024/02/29 05:32:09;;;;;;;34.50;29.42;;;;;;;;;;4981642;28;20199;-86
2024/02/29 05:34:36;;;;;;;36.45;30.05;;;;;;;;;;4981379;28;20226;-86
2024/02/29 05:37:03;;;;;;;34.53;30.30;;;;;;;;;;4981724;28;20255;-86
2024/02/29 05:39:33;;;;;;;36.15;30.20;;;;;;;;;;4981557;28;20218;-85
2024/02/29 05:42:00;;;;;;;34.38;30.58;;;;;;;;;;4980784;28;20581;-86
2024/02/29 05:44:29;;;;;;;34.03;29.83;;;;;;;;;;4981590;28;20274;-85
2024/02/29 05:46:58;;;;;;;36.17;30.15;;;;;;;;;;4982191;28;20254;-85
2024/02/29 05:49:25;;;;;;;33.80;29.60;;;;;;;;;;4974798;28;20216;-86
2024/02/29 05:51:52;;;;;;;33.33;29.13;;;;;;;;;;4961474;29;20727;-86
2024/02/29 05:54:19;;;;;;;37.55;31.98;;;;;;;;;;4962760;28;20287;-86
2024/02/29 05:56:46;;;;;;;41.10;30.92;;;;;;;;;;4962893;29;20210;-86
2024/02/29 05:59:14;;;;;;;38.13;32.10;;;;;;;;;;4963096;29;20271;-86
2024/02/29 06:01:41;;;;;;;34.25;30.55;;;;;;;;;;4966159;28;20214;-86
2024/02/29 06:04:09;;;;;;;40.70;31.90;;;;;;;;;;4980339;28;20242;-86
2024/02/29 06:06:36;;;;;;;35.03;28.60;;;;;;;;;;4981340;28;20222;-86
2024/02/29 06:09:03;;;;;;;34.33;30.83;;;;;;;;;;4981303;28;20603;-86
2024/02/29 06:11:30;;;;;;;35.22;30.00;;;;;;;;;;4981029;28;20202;-86
2024/02/29 06:13:57;;;;;;;33.65;30.02;;;;;;;;;;4970439;28;20297;-85
2024/02/29 06:16:24;;;;;;;37.95;32.55;;;;;;;;;;4962391;29;20200;-85
2024/02/29 06:18:51;;;;;;;36.95;32.10;;;;;;;;;;4961285;29;20211;-85
2024/02/29 06:21:19;;;;;;;38.40;30.20;;;;;;;;;;4961504;29;20208;-86
2024/02/29 06:23:46;;;;;;;32.90;29.60;;;;;;;;;;4961480;28;20223;-86
2024/02/29 06:26:13;;;;;;;32.33;28.83;;;;;;;;;;4964425;28;20273;-86
2024/02/29 06:28:40;;;;;;;35.17;31.00;;;;;;;;;;4975702;28;20210;-85
2024/02/29 06:31:08;;;;;;;41.55;32.92;;;;;;;;;;4970869;28;20218;-82
2024/02/29 06:33:36;;;;;;;41.83;31.48;;;;;;;;;;4976717;28;20227;-81
2024/02/29 06:36:04;;;;;;;32.58;29.38;;;;;;;;;;4975958;28;20232;-85
2024/02/29 06:38:32;;;;;;;44.67;31.98;;;;;;;;;;4979637;28;20309;-86
2024/02/29 06:41:00;;;;;;;30.73;27.58;;;;;;;;;;4975215;28;20906;-86
2024/02/29 06:43:27;;;;;;;36.53;31.65;;;;;;;;;;4978491;28;20223;-82
2024/02/29 06:45:53;;;;;;;33.97;30.55;;;;;;;;;;4977166;28;20225;-82
2024/02/29 06:48:21;;;;;;;34.95;31.15;;;;;;;;;;4973853;28;20227;-82
2024/02/29 06:50:48;;;;;;;36.70;31.40;;;;;;;;;;4957544;29;20208;-82
2024/02/29 06:53:15;;;;;;;35.30;30.45;;;;;;;;;;4964995;28;20234;-81
2024/02/29 06:55:43;;;;;;;33.13;29.55;;;;;;;;;;4977856;28;20214;-82
2024/02/29 06:58:11;;;;;;;35.95;30.83;;;;;;;;;;4977275;28;20258;-79
2024/02/29 07:00:39;;;;;;;35.55;31.05;;;;;;;;;;4977134;28;20305;-80
2024/02/29 07:03:06;;;;;;;34.33;30.60;;;;;;;;;;4983572;28;20282;-80
2024/02/29 07:05:33;;;;;;;33.70;28.33;;;;;;;;;;4976027;28;20222;-79
2024/02/29 07:08:01;;;;;;;36.33;29.60;;;;;;;;;;4981836;28;20253;-81
2024/02/29 07:10:28;;;;;;;36.67;31.13;;;;;;;;;;4988525;28;20214;-80
2024/02/29 07:12:56;;;;;;;32.92;28.90;;;;;;;;;;4988014;28;20203;-79
2024/02/29 07:15:25;;;;;;;32.35;29.02;;;;;;;;;;4984790;28;20207;-81
2024/02/29 07:17:51;;;;;;;30.70;27.90;;;;;;;;;;4977457;28;20210;-80
2024/02/29 07:20:19;;;;;;;31.58;28.17;;;;;;;;;;4994363;28;20210;-79
2024/02/29 07:22:46;;;;;;;32.40;28.38;;;;;;;;;;4995758;28;20210;-89
2024/02/29 07:25:14;;;;;;;30.02;26.83;;;;;;;;;;4981756;28;20219;-79
2024/02/29 07:27:41;;;;;;;29.42;25.40;;;;;;;;;;4957461;29;20231;-79
2024/02/29 07:30:11;;;;;;;29.35;26.45;;;;;;;;;;4964853;28;20235;-79
2024/02/29 07:32:38;;;;;;;29.60;26.73;;;;;;;;;;4956240;29;20247;-79
2024/02/29 07:35:05;;;;;;;27.92;25.23;;;;;;;;;;4971697;28;20266;-79
2024/02/29 07:37:33;;;;;;;27.45;24.13;;;;;;;;;;4976323;28;20206;-79
2024/02/29 07:40:00;;;;;;;25.63;23.05;;;;;;;;;;4975848;28;20206;-79
2024/02/29 07:42:27;;;;;;;24.98;22.63;;;;;;;;;;4991732;28;20214;-79
2024/02/29 07:44:54;;;;;;;26.52;23.98;;;;;;;;;;4991494;28;20231;-78
2024/02/29 07:47:22;;;;;;;30.40;25.85;;;;;;;;;;4974825;28;20231;-79
2024/02/29 07:49:49;;;;;;;26.27;24.08;;;;;;;;;;4981121;28;20206;-79
2024/02/29 07:52:16;;;;;;;27.98;25.27;;;;;;;;;;4986024;28;20257;-78
2024/02/29 07:54:45;;;;;;;24.75;22.27;;;;;;;;;;4984030;28;20696;-83
2024/02/29 07:57:12;;;;;;;26.85;24.45;;;;;;;;;;4960707;29;20218;-80
2024/02/29 07:59:39;;;;;;;25.48;23.25;;;;;;;;;;4961316;28;20215;-84
2024/02/29 08:02:06;;;;;;;25.92;23.60;;;;;;;;;;4980778;28;20207;-89
2024/02/29 08:04:36;;;;;;;23.42;21.63;;;;;;;;;;4981153;28;20285;-82
2024/02/29 08:07:03;;;;;;;24.92;22.60;;;;;;;;;;4981287;28;20709;-83
2024/02/29 08:09:30;;;;;;;23.90;22.00;;;;;;;;;;4980853;28;20211;-82
2024/02/29 08:11:57;;;;;;;23.23;21.00;;;;;;;;;;4980474;28;20242;-82
2024/02/29 08:14:25;;;;;;;24.50;22.45;;;;;;;;;;4980746;28;20234;-81
2024/02/29 08:16:52;;;;;;;24.15;22.08;;;;;;;;;;4978028;28;20696;-80
2024/02/29 08:19:19;;;;;;;24.75;22.55;;;;;;;;;;4972739;28;20208;-80
2024/02/29 08:21:48;;;;;;;23.67;21.67;;;;;;;;;;4958297;29;20285;-79
2024/02/29 08:24:15;;;;;;;23.65;21.73;;;;;;;;;;4958671;28;20287;-79
2024/02/29 08:26:42;;;;;;;23.73;21.65;;;;;;;;;;4977569;28;20285;-80
2024/02/29 08:29:13;;;;;;;24.83;22.85;;;;;;;;;;4962738;28;20704;-85
2024/02/29 08:31:41;;;;;;;24.20;22.15;;;;;;;;;;4968526;28;20299;-81
2024/02/29 08:34:08;;;;;;;25.30;23.20;;;;;;;;;;4960861;28;20239;-80
2024/02/29 08:36:35;;;;;;;24.63;22.63;;;;;;;;;;4963222;28;20229;-82
2024/02/29 08:39:04;;;;;;;23.75;22.02;;;;;;;;;;4979011;28;20211;-78
2024/02/29 08:41:31;;;;;;;24.60;22.77;;;;;;;;;;4979037;28;20258;-80
2024/02/29 08:43:58;;;;;;;23.70;21.97;;;;;;;;;;4979310;28;20482;-81
2024/02/29 08:46:25;;;;;;;23.08;21.48;;;;;;;;;;4970571;28;20487;-80
2024/02/29 08:48:52;;;;;;;22.92;21.23;;;;;;;;;;4973284;28;20277;-81
2024/02/29 08:51:19;;;;;;;23.10;21.40;;;;;;;;;;4976037;28;20615;-78
2024/02/29 08:53:46;;;;;;;22.20;20.50;;;;;;;;;;4974108;28;20223;-77
2024/02/29 08:56:14;;;;;;;24.77;22.73;;;;;;;;;;4978016;28;20587;-81
2024/02/29 08:58:41;;;;;;;23.60;21.85;;;;;;;;;;4975991;28;20514;-79
2024/02/29 09:01:09;;;;;;;22.20;20.60;;;;;;;;;;4972299;28;20604;-78
2024/02/29 09:03:37;;;;;;;21.73;20.13;;;;;;;;;;4977393;28;20876;-82
2024/02/29 09:06:05;;;;;;;22.97;21.37;;;;;;;;;;4970846;28;20509;-79
2024/02/29 09:08:32;;;;;;;21.10;19.70;;;;;;;;;;4977704;28;20459;-84
2024/02/29 09:10:59;;;;;;;21.47;19.97;;;;;;;;;;4978590;28;20462;-82
2024/02/29 09:13:27;;;;;;;21.57;20.20;;;;;;;;;;4973840;28;20778;-78
2024/02/29 09:15:54;;;;;;;21.20;19.90;;;;;;;;;;4977623;28;20979;-85
2024/02/29 09:18:22;;;;;;;22.20;20.80;;;;;;;;;;4983581;28;20506;-82
2024/02/29 09:20:49;;;;;;;22.30;20.80;;;;;;;;;;4971703;28;20829;-82
2024/02/29 09:23:16;;;;;;;22.30;20.87;;;;;;;;;;4972494;28;20466;-82
2024/02/29 09:25:43;;;;;;;21.77;20.37;;;;;;;;;;4974650;28;20568;-80
2024/02/29 09:28:10;;;;;;;20.20;19.00;;;;;;;;;;4973246;28;21013;-80
2024/02/29 09:30:38;;;;;;;20.67;19.43;;;;;;;;;;4969643;28;20482;-86
2024/02/29 09:33:06;;;;;;;21.17;19.83;;;;;;;;;;4963594;28;20482;-83
2024/02/29 09:35:33;;;;;;;21.67;20.37;;;;;;;;;;4973517;28;20493;-79
2024/02/29 09:38:00;;;;;;;21.23;20.00;;;;;;;;;;4975314;28;20450;-79
2024/02/29 09:40:27;;;;;;;20.63;19.43;;;;;;;;;;4977333;28;20525;-83
2024/02/29 09:42:54;;;;;;;19.67;18.57;;;;;;;;;;4978711;28;20451;-83
2024/02/29 09:45:23;;;;;;;20.27;18.97;;;;;;;;;;4977545;28;20497;-80
2024/02/29 09:47:52;;;;;;;19.50;18.50;;;;;;;;;;4977802;28;20493;-82
2024/02/29 09:50:19;;;;;;;21.23;19.93;;;;;;;;;;4978838;28;20449;-86
2024/02/29 09:52:47;;;;;;;20.73;19.43;;;;;;;;;;4972672;28;20505;-79
2024/02/29 09:55:14;;;;;;;20.80;19.30;;;;;;;;;;4957367;29;20811;-80
2024/02/29 09:57:42;;;;;;;21.23;19.93;;;;;;;;;;4957140;29;20431;-84
2024/02/29 10:00:10;;;;;;;23.17;21.47;;;;;;;;;;4966358;28;20476;-80
2024/02/29 10:02:38;;;;;;;21.27;19.97;;;;;;;;;;4956630;29;20446;-81
2024/02/29 10:05:09;;;;;;;21.17;19.87;;;;;;;;;;4958107;28;20478;-81
2024/02/29 10:07:40;;;;;;;21.53;20.13;;;;;;;;;;4959214;29;20438;-82
2024/02/29 10:10:09;;;;;;;22.67;21.20;;;;;;;;;;4956135;29;20443;-78
2024/02/29 10:15:40;;;;;;;23.33;21.43;;;;;;;;;;4981284;28;20493;-78
2024/02/29 10:21:14;;;;;;;23.30;21.70;;;;;;;;;;4992493;28;20392;-78
2024/02/29 10:23:42;;;;;;;23.20;21.60;;;;;;;;;;4986028;28;20480;-79
2024/02/29 10:26:09;;;;;;;23.17;21.67;;;;;;;;;;4974617;28;20954;-78
2024/02/29 10:28:36;;;;;;;22.07;20.47;;;;;;;;;;4974374;28;20915;-83
2024/02/29 10:31:04;;;;;;;22.30;20.90;;;;;;;;;;4973525;28;20521;-79
2024/02/29 10:33:33;;;;;;;22.57;20.90;;;;;;;;;;4973491;28;20478;-79
2024/02/29 10:36:09;;;;;;;21.67;20.30;;;;;;;;;;4973415;28;20524;-79
2024/02/29 10:38:38;;;;;;;23.27;21.67;;;;;;;;;;4973915;28;20761;-78
2024/02/29 10:41:07;;;;;;;22.10;20.70;;;;;;;;;;4973040;28;20457;-80
2024/02/29 10:43:34;;;;;;;24.00;22.33;;;;;;;;;;4973680;28;20536;-78
2024/02/29 10:46:02;;;;;;;23.10;21.50;;;;;;;;;;4973842;28;20458;-77
2024/02/29 10:48:33;;;;;;;23.60;22.10;;;;;;;;;;4973676;28;21252;-78
2024/02/29 10:51:01;;;;;;;23.40;21.50;;;;;;;;;;4973446;28;20477;-78
2024/02/29 10:53:38;;;;;;;24.13;22.43;;;;;;;;;;4973486;28;20455;-78
2024/02/29 10:56:09;;;;;;;21.80;20.40;;;;;;;;;;4973969;28;20442;-79
2024/02/29 10:58:37;;;;;;;22.10;20.27;;;;;;;;;;4973754;28;20889;-78
2024/02/29 11:01:06;;;;;;;25.53;23.50;;;;;;;;;;4972824;28;20473;-78
2024/02/29 11:03:34;;;;;;;23.97;22.33;;;;;;;;;;4973416;28;20527;-78
2024/02/29 11:06:03;;;;;;;22.47;20.97;;;;;;;;;;4973400;28;20432;-78
2024/02/29 11:08:30;;;;;;;23.80;22.10;;;;;;;;;;4972957;28;20536;-78
2024/02/29 11:10:57;;;;;;;26.90;24.63;;;;;;;;;;4972875;28;21466;-78
2024/02/29 11:13:28;;;;;;;27.00;24.90;;;;;;;;;;4972816;28;20490;-79
2024/02/29 11:15:56;;;;;;;24.73;22.80;;;;;;;;;;4973926;28;20458;-78
2024/02/29 11:18:24;;;;;;;29.63;27.13;;;;;;;;;;4974003;28;21049;-79
2024/02/29 11:21:03;;;;;;;29.50;27.00;;;;;;;;;;4982092;28;21317;-80
2024/02/29 11:23:30;;;;;;;30.13;27.00;;;;;;;;;;4985602;28;20537;-80
2024/02/29 11:25:59;;;;;;;28.43;25.90;;;;;;;;;;4994271;28;20450;-79
2024/02/29 11:28:42;;;;;;;28.10;25.67;;;;;;;;;;4975472;28;20518;-79
2024/02/29 11:31:14;;;;;;;29.50;26.73;;;;;;;;;;4979798;28;20438;-81
2024/02/29 11:33:41;;;;;;;29.17;26.77;;;;;;;;;;4977910;28;20521;-79
2024/02/29 11:36:09;;;;;;;26.70;24.70;;;;;;;;;;4977332;28;20450;-78
2024/02/29 11:38:37;;;;;;;29.43;27.07;;;;;;;;;;4977985;28;20453;-78
2024/02/29 11:41:04;;;;;;;25.03;23.23;;;;;;;;;;4977365;28;20439;-78
2024/02/29 11:43:31;;;;;;;29.87;27.23;;;;;;;;;;4977615;28;20564;-79
2024/02/29 11:46:07;;;;;;;28.57;26.20;;;;;;;;;;4977440;28;20450;-78
2024/02/29 11:48:36;;;;;;;25.27;23.23;;;;;;;;;;4977296;28;20584;-78
2024/02/29 11:51:03;;;;;;;28.37;26.10;;;;;;;;;;4977043;28;20513;-79
2024/02/29 11:53:34;;;;;;;31.53;28.87;;;;;;;;;;4977116;28;20462;-78
2024/02/29 11:56:01;;;;;;;30.73;28.03;;;;;;;;;;4976816;28;20811;-79
2024/02/29 11:58:29;;;;;;;30.60;27.70;;;;;;;;;;4977085;28;20417;-79
2024/02/29 12:00:56;;;;;;;30.47;27.77;;;;;;;;;;4976433;28;20874;-78
2024/02/29 12:03:23;;;;;;;30.07;27.43;;;;;;;;;;4977410;28;20478;-79
2024/02/29 12:05:52;;;;;;;28.70;26.20;;;;;;;;;;4976277;28;20961;-79
2024/02/29 12:08:20;;;;;;;28.60;26.07;;;;;;;;;;4976749;28;20522;-80
2024/02/29 12:10:47;;;;;;;32.30;29.40;;;;;;;;;;4976149;28;20553;-79
2024/02/29 12:13:15;;;;;;;29.43;26.93;;;;;;;;;;4977900;28;20898;-79
2024/02/29 12:15:42;;;;;;;28.37;25.93;;;;;;;;;;4979054;28;20781;-79
2024/02/29 12:18:10;;;;;;;27.57;25.03;;;;;;;;;;4978551;28;20525;-79
2024/02/29 12:20:37;;;;;;;31.90;29.20;;;;;;;;;;4995420;28;20428;-79
2024/02/29 12:23:07;;;;;;;30.83;28.33;;;;;;;;;;4988640;28;20977;-79
2024/02/29 12:25:34;;;;;;;31.40;28.87;;;;;;;;;;4998513;28;20453;-79
2024/02/29 12:28:02;;;;;;;32.83;30.07;;;;;;;;;;4998235;28;20428;-79
2024/02/29 12:30:31;;;;;;;33.37;30.27;;;;;;;;;;4998740;28;20437;-78
2024/02/29 12:32:58;;;;;;;31.90;29.03;;;;;;;;;;4998431;28;20462;-79
2024/02/29 12:35:28;;;;;;;30.50;27.80;;;;;;;;;;4998068;28;20453;-80
2024/02/29 12:37:55;;;;;;;31.17;28.47;;;;;;;;;;4998422;28;20457;-82
2024/02/29 12:40:24;;;;;;;32.43;29.57;;;;;;;;;;4997158;28;20476;-80
2024/02/29 12:42:51;;;;;;;30.23;27.67;;;;;;;;;;4977463;28;20467;-78
2024/02/29 12:45:19;;;;;;;30.63;28.00;;;;;;;;;;4979735;28;20454;-84
2024/02/29 12:47:46;;;;;;;30.37;27.93;;;;;;;;;;4983389;28;20548;-80
2024/02/29 12:50:13;;;;;;;30.50;28.00;;;;;;;;;;4978919;28;20489;-79
2024/02/29 12:52:40;;;;;;;32.63;29.43;;;;;;;;;;4977874;28;20432;-80
2024/02/29 12:55:07;;;;;;;30.13;27.63;;;;;;;;;;4978677;28;21040;-79
2024/02/29 12:57:36;;;;;;;30.30;27.63;;;;;;;;;;4978181;28;20459;-80
2024/02/29 13:00:04;;;;;;;29.93;27.33;;;;;;;;;;4978687;28;20442;-79
2024/02/29 13:02:31;;;;;;;29.50;27.20;;;;;;;;;;4977335;28;20461;-81
2024/02/29 13:04:58;;;;;;;28.80;26.63;;;;;;;;;;4976962;28;20501;-79
2024/02/29 13:07:25;;;;;;;29.00;26.70;;;;;;;;;;4977910;28;20438;-79
2024/02/29 13:09:53;;;;;;;31.83;29.07;;;;;;;;;;4977902;28;20489;-81
2024/02/29 13:12:20;;;;;;;29.20;26.90;;;;;;;;;;4977192;28;20451;-80
2024/02/29 13:14:48;;;;;;;29.63;27.30;;;;;;;;;;4977363;28;20485;-79
2024/02/29 13:17:15;;;;;;;32.30;28.90;;;;;;;;;;4976926;28;20458;-80
2024/02/29 13:19:44;;;;;;;29.60;27.20;;;;;;;;;;4977337;28;20813;-79
2024/02/29 13:22:11;;;;;;;29.17;26.90;;;;;;;;;;4977096;28;20451;-80
2024/02/29 13:24:38;;;;;;;28.27;25.87;;;;;;;;;;4984734;28;20543;-79
2024/02/29 13:27:05;;;;;;;28.63;26.33;;;;;;;;;;4995435;28;20438;-81
2024/02/29 13:29:33;;;;;;;29.00;26.80;;;;;;;;;;4977125;28;20485;-80
2024/02/29 13:32:04;;;;;;;28.63;26.20;;;;;;;;;;4977451;28;20456;-80
2024/02/29 13:34:31;;;;;;;28.23;26.10;;;;;;;;;;4977154;28;20473;-77
2024/02/29 13:36:58;;;;;;;27.90;25.70;;;;;;;;;;4980204;28;20964;-83
2024/02/29 13:39:25;;;;;;;28.63;26.27;;;;;;;;;;4998322;28;20577;-81
2024/02/29 13:41:52;;;;;;;30.23;27.73;;;;;;;;;;4997819;28;20462;-84
2024/02/29 13:44:21;;;;;;;27.63;25.53;;;;;;;;;;4997737;28;20520;-81
2024/02/29 13:46:48;;;;;;;27.90;25.40;;;;;;;;;;4996779;28;20946;-80
2024/02/29 13:49:17;;;;;;;29.30;27.00;;;;;;;;;;4997314;28;20464;-82
2024/02/29 13:51:44;;;;;;;30.13;27.30;;;;;;;;;;4996200;28;20516;-78
2024/02/29 13:54:11;;;;;;;28.30;26.00;;;;;;;;;;4995926;28;20484;-79
2024/02/29 13:56:38;;;;;;;28.77;26.47;;;;;;;;;;4996134;28;20519;-80
2024/02/29 13:59:05;;;;;;;28.93;26.50;;;;;;;;;;4996832;28;20492;-79
2024/02/29 14:01:32;;;;;;;27.73;25.63;;;;;;;;;;4995792;28;20461;-80
2024/02/29 14:03:59;;;;;;;28.53;26.23;;;;;;;;;;4996210;28;20477;-79
2024/02/29 14:06:28;;;;;;;28.50;26.30;;;;;;;;;;4985882;28;20430;-79
2024/02/29 14:08:55;;;;;;;25.83;23.83;;;;;;;;;;4989397;28;20853;-78
2024/02/29 14:11:22;;;;;;;28.43;26.30;;;;;;;;;;4995370;28;20539;-79
2024/02/29 14:13:50;;;;;;;27.10;25.20;;;;;;;;;;4982490;28;20481;-80
2024/02/29 14:16:17;;;;;;;29.60;27.10;;;;;;;;;;4976865;28;20557;-79
2024/02/29 14:18:44;;;;;;;27.23;25.13;;;;;;;;;;4977184;28;20453;-78
2024/02/29 14:21:15;;;;;;;28.80;26.43;;;;;;;;;;4976764;28;20428;-79
2024/02/29 14:23:43;;;;;;;27.27;25.07;;;;;;;;;;4976418;28;20838;-79